createdAt,value
2018-07-31T00:00:19.053Z,64.18
2018-07-31T00:01:19.041Z,65.24
2018-07-31T00:02:19.032Z,65.05
2018-07-31T00:03:19.023Z,65.01
2018-07-31T00:04:19.010Z,65.63
2018-07-31T00:05:19.001Z,64.95
2018-07-31T00:06:18.991Z,65.11
2018-07-31T00:07:18.980Z,65.40
2018-07-31T00:08:18.972Z,65.30
2018-07-31T00:09:18.961Z,65.88
2018-07-31T00:10:18.955Z,65.50
2018-07-31T00:11:18.944Z,65.59
2018-07-31T00:12:18.931Z,65.50
2018-07-31T00:13:18.921Z,65.59
2018-07-31T00:14:18.912Z,66.27
2018-07-31T00:15:18.901Z,66.46
2018-07-31T00:16:18.893Z,66.08
2018-07-31T00:17:18.883Z,66.17
2018-07-31T00:18:18.868Z,66.27
2018-07-31T00:19:18.859Z,65.98
2018-07-31T00:20:18.870Z,66.27
2018-07-31T00:21:18.837Z,67.30
2018-07-31T00:22:18.830Z,67.40
2018-07-31T00:23:18.820Z,66.63
2018-07-31T00:24:18.808Z,66.72
2018-07-31T00:25:18.800Z,67.20
2018-07-31T00:26:18.786Z,67.59
2018-07-31T00:27:18.777Z,67.11
2018-07-31T00:28:18.765Z,67.20
2018-07-31T00:29:18.754Z,67.30
2018-07-31T00:30:18.747Z,66.33
2018-07-31T00:31:18.745Z,66.63
2018-07-31T00:32:18.726Z,66.24
2018-07-31T00:33:18.715Z,66.63
2018-07-31T00:34:18.705Z,66.14
2018-07-31T00:35:18.693Z,66.63
2018-07-31T00:36:18.686Z,67.59
2018-07-31T00:37:18.673Z,67.01
2018-07-31T00:38:18.662Z,67.49
2018-07-31T00:39:18.653Z,67.55
2018-07-31T00:40:18.642Z,67.85
2018-07-31T00:41:18.635Z,67.85
2018-07-31T00:42:18.622Z,67.94
2018-07-31T00:43:18.611Z,68.04
2018-07-31T00:44:18.602Z,67.75
2018-07-31T00:45:18.589Z,67.85
2018-07-31T00:46:18.584Z,67.85
2018-07-31T00:47:18.569Z,67.55
2018-07-31T00:48:18.559Z,67.94
2018-07-31T00:49:18.553Z,67.65
2018-07-31T00:50:18.536Z,67.55
2018-07-31T00:51:18.528Z,67.75
2018-07-31T00:52:18.519Z,68.23
2018-07-31T00:53:18.505Z,67.85
2018-07-31T00:54:18.495Z,68.49
2018-07-31T00:55:18.487Z,68.49
2018-07-31T00:56:18.475Z,68.77
2018-07-31T00:57:18.463Z,69.26
2018-07-31T00:58:18.453Z,69.45
2018-07-31T00:59:18.443Z,69.35
2018-07-31T01:00:18.432Z,69.55
2018-07-31T01:01:18.420Z,69.58
2018-07-31T01:02:18.410Z,69.00
2018-07-31T01:03:18.401Z,69.10
2018-07-31T01:04:18.439Z,69.00
2018-07-31T01:05:18.380Z,69.20
2018-07-31T01:06:18.367Z,69.29
2018-07-31T01:07:18.357Z,69.78
2018-07-31T01:08:18.346Z,69.29
2018-07-31T01:09:18.336Z,69.29
2018-07-31T01:10:18.331Z,69.68
2018-07-31T01:11:18.313Z,69.87
2018-07-31T01:12:18.304Z,69.68
2018-07-31T01:13:18.291Z,69.87
2018-07-31T01:14:18.289Z,69.87
2018-07-31T01:15:18.286Z,69.58
2018-07-31T01:16:18.260Z,69.87
2018-07-31T01:17:18.247Z,69.84
2018-07-31T01:18:18.237Z,69.84
2018-07-31T01:19:18.226Z,70.51
2018-07-31T01:20:18.217Z,70.22
2018-07-31T01:21:18.204Z,70.22
2018-07-31T01:22:18.195Z,71.00
2018-07-31T01:23:18.183Z,71.00
2018-07-31T01:24:18.173Z,71.09
2018-07-31T01:25:18.162Z,71.58
2018-07-31T01:26:18.151Z,70.80
2018-07-31T01:27:18.143Z,70.13
2018-07-31T01:28:18.133Z,70.16
2018-07-31T01:29:18.118Z,70.22
2018-07-31T01:30:18.107Z,70.42
2018-07-31T01:31:18.097Z,71.09
2018-07-31T01:32:18.088Z,70.80
2018-07-31T01:33:18.073Z,70.80
2018-07-31T01:34:18.067Z,71.67
2018-07-31T01:35:18.057Z,70.90
2018-07-31T01:36:18.040Z,70.42
2018-07-31T01:37:18.030Z,70.90
2018-07-31T01:38:18.021Z,71.19
2018-07-31T01:39:18.007Z,70.90
2018-07-31T01:40:17.999Z,71.96
2018-07-31T01:41:17.985Z,71.48
2018-07-31T01:42:17.976Z,71.96
2018-07-31T01:43:17.965Z,72.25
2018-07-31T01:44:17.955Z,72.31
2018-07-31T01:45:17.940Z,72.34
2018-07-31T01:46:17.934Z,71.86
2018-07-31T01:47:17.920Z,72.31
2018-07-31T01:48:17.909Z,72.15
2018-07-31T01:49:17.901Z,71.38
2018-07-31T01:50:17.887Z,72.12
2018-07-31T01:51:17.875Z,72.41
2018-07-31T01:52:17.866Z,72.12
2018-07-31T01:53:17.862Z,72.31
2018-07-31T01:54:17.841Z,72.21
2018-07-31T01:55:17.838Z,72.99
2018-07-31T01:56:17.825Z,72.69
2018-07-31T01:57:17.809Z,72.60
2018-07-31T01:58:17.797Z,72.60
2018-07-31T01:59:17.787Z,72.69
2018-07-31T02:00:17.774Z,72.69
2018-07-31T02:01:17.764Z,73.27
2018-07-31T02:02:17.763Z,73.27
2018-07-31T02:03:17.747Z,72.99
2018-07-31T02:04:17.733Z,72.99
2018-07-31T02:05:17.724Z,72.99
2018-07-31T02:06:17.829Z,72.99
2018-07-31T02:07:17.698Z,72.60
2018-07-31T02:08:17.685Z,72.79
2018-07-31T02:09:17.702Z,72.89
2018-07-31T02:10:17.664Z,72.99
2018-07-31T02:11:17.653Z,73.14
2018-07-31T02:12:17.641Z,73.08
2018-07-31T02:13:17.630Z,73.05
2018-07-31T02:14:17.619Z,72.79
2018-07-31T02:15:17.608Z,73.18
2018-07-31T02:16:17.597Z,73.66
2018-07-31T02:17:17.597Z,73.08
2018-07-31T02:18:17.573Z,72.31
2018-07-31T02:19:17.562Z,73.18
2018-07-31T02:20:17.551Z,72.89
2018-07-31T02:21:17.539Z,73.27
2018-07-31T02:22:17.528Z,73.08
2018-07-31T02:23:17.517Z,73.43
2018-07-31T02:24:17.505Z,72.75
2018-07-31T02:25:17.493Z,73.72
2018-07-31T02:26:17.480Z,73.47
2018-07-31T02:27:17.471Z,73.05
2018-07-31T02:28:17.563Z,74.20
2018-07-31T02:29:17.447Z,74.10
2018-07-31T02:30:17.435Z,74.20
2018-07-31T02:31:17.425Z,74.49
2018-07-31T02:32:17.413Z,74.49
2018-07-31T02:33:17.401Z,74.20
2018-07-31T02:34:17.392Z,74.01
2018-07-31T02:35:17.386Z,73.43
2018-07-31T02:36:17.370Z,74.20
2018-07-31T02:37:17.356Z,73.91
2018-07-31T02:38:17.345Z,74.30
2018-07-31T02:39:17.332Z,74.10
2018-07-31T02:40:17.323Z,74.30
2018-07-31T02:41:17.311Z,74.33
2018-07-31T02:42:17.311Z,74.30
2018-07-31T02:43:17.297Z,73.95
2018-07-31T02:44:17.277Z,74.20
2018-07-31T02:45:17.267Z,73.82
2018-07-31T02:46:17.254Z,74.20
2018-07-31T02:47:17.243Z,74.30
2018-07-31T02:48:17.231Z,74.68
2018-07-31T02:49:17.224Z,74.68
2018-07-31T02:50:17.207Z,74.58
2018-07-31T02:51:17.201Z,74.30
2018-07-31T02:52:17.185Z,74.49
2018-07-31T02:53:17.176Z,74.58
2018-07-31T02:54:17.161Z,74.49
2018-07-31T02:55:17.149Z,74.49
2018-07-31T02:56:17.140Z,74.30
2018-07-31T02:57:17.128Z,74.49
2018-07-31T02:58:17.144Z,74.30
2018-07-31T02:59:17.103Z,74.88
2018-07-31T03:00:17.093Z,73.72
2018-07-31T03:01:17.081Z,74.58
2018-07-31T03:02:17.071Z,74.20
2018-07-31T03:03:17.057Z,74.30
2018-07-31T03:04:17.048Z,75.07
2018-07-31T03:05:17.036Z,75.36
2018-07-31T03:06:17.048Z,75.07
2018-07-31T03:07:17.011Z,75.55
2018-07-31T03:08:17.066Z,75.61
2018-07-31T03:09:16.989Z,75.51
2018-07-31T03:10:16.975Z,75.42
2018-07-31T03:11:16.967Z,75.61
2018-07-31T03:12:16.957Z,75.42
2018-07-31T03:13:16.943Z,75.61
2018-07-31T03:14:16.930Z,75.51
2018-07-31T03:15:16.918Z,75.32
2018-07-31T03:16:16.910Z,76.09
2018-07-31T03:17:16.893Z,75.23
2018-07-31T03:18:16.885Z,75.51
2018-07-31T03:19:16.869Z,75.99
2018-07-31T03:20:16.860Z,75.32
2018-07-31T03:21:16.850Z,75.16
2018-07-31T03:22:16.840Z,75.36
2018-07-31T03:23:16.823Z,75.32
2018-07-31T03:24:16.812Z,75.51
2018-07-31T03:25:16.804Z,75.36
2018-07-31T03:26:16.793Z,75.26
2018-07-31T03:27:16.778Z,75.84
2018-07-31T03:28:16.775Z,75.36
2018-07-31T03:29:16.752Z,75.36
2018-07-31T03:30:16.743Z,75.45
2018-07-31T03:31:16.734Z,75.07
2018-07-31T03:32:16.725Z,75.55
2018-07-31T03:33:16.706Z,75.36
2018-07-31T03:34:16.695Z,75.51
2018-07-31T03:35:16.684Z,75.55
2018-07-31T03:36:16.673Z,75.36
2018-07-31T03:37:16.660Z,75.45
2018-07-31T03:38:16.654Z,75.16
2018-07-31T03:39:16.635Z,75.26
2018-07-31T03:40:16.624Z,75.36
2018-07-31T03:41:16.612Z,76.23
2018-07-31T03:42:16.600Z,76.28
2018-07-31T03:43:16.589Z,75.99
2018-07-31T03:44:16.578Z,75.71
2018-07-31T03:45:16.565Z,75.90
2018-07-31T03:46:16.552Z,75.99
2018-07-31T03:47:16.541Z,76.13
2018-07-31T03:48:16.531Z,76.28
2018-07-31T03:49:16.518Z,76.03
2018-07-31T03:50:16.508Z,75.99
2018-07-31T03:51:16.496Z,76.13
2018-07-31T03:52:16.482Z,76.23
2018-07-31T03:53:16.470Z,76.18
2018-07-31T03:54:16.462Z,75.80
2018-07-31T03:55:16.446Z,75.36
2018-07-31T03:56:16.465Z,75.51
2018-07-31T03:57:16.421Z,75.61
2018-07-31T03:58:16.410Z,76.38
2018-07-31T03:59:16.403Z,76.28
2018-07-31T04:00:16.389Z,76.48
2018-07-31T04:01:16.379Z,76.76
2018-07-31T04:02:16.365Z,77.25
2018-07-31T04:03:16.351Z,76.57
2018-07-31T04:04:16.339Z,76.48
2018-07-31T04:05:16.326Z,77.15
2018-07-31T04:06:16.315Z,77.92
2018-07-31T04:07:16.308Z,77.34
2018-07-31T04:08:16.292Z,77.34
2018-07-31T04:09:16.279Z,76.57
2018-07-31T04:10:16.269Z,76.76
2018-07-31T04:11:16.256Z,77.34
2018-07-31T04:12:16.245Z,76.48
2018-07-31T04:13:16.232Z,76.76
2018-07-31T04:14:16.219Z,76.96
2018-07-31T04:15:16.209Z,76.96
2018-07-31T04:16:16.208Z,77.34
2018-07-31T04:17:16.230Z,77.34
2018-07-31T04:18:16.172Z,77.63
2018-07-31T04:19:16.165Z,77.73
2018-07-31T04:20:16.202Z,78.02
2018-07-31T04:21:16.141Z,78.11
2018-07-31T04:22:16.132Z,78.02
2018-07-31T04:23:16.113Z,78.31
2018-07-31T04:24:16.103Z,78.11
2018-07-31T04:25:16.098Z,78.02
2018-07-31T04:26:16.079Z,78.21
2018-07-31T04:27:16.067Z,78.40
2018-07-31T04:28:16.060Z,77.44
2018-07-31T04:29:16.041Z,77.73
2018-07-31T04:30:16.033Z,77.67
2018-07-31T04:31:16.019Z,77.76
2018-07-31T04:32:16.008Z,77.86
2018-07-31T04:33:15.995Z,77.96
2018-07-31T04:34:15.982Z,77.76
2018-07-31T04:35:15.971Z,78.15
2018-07-31T04:36:15.970Z,78.15
2018-07-31T04:37:15.945Z,78.44
2018-07-31T04:38:15.937Z,77.19
2018-07-31T04:39:15.923Z,77.76
2018-07-31T04:40:15.912Z,77.67
2018-07-31T04:41:15.915Z,77.00
2018-07-31T04:42:15.951Z,77.76
2018-07-31T04:43:15.878Z,77.86
2018-07-31T04:44:15.864Z,77.67
2018-07-31T04:45:15.856Z,77.19
2018-07-31T04:46:15.844Z,77.61
2018-07-31T04:47:15.827Z,77.42
2018-07-31T04:48:15.816Z,77.90
2018-07-31T04:49:15.803Z,77.71
2018-07-31T04:50:15.808Z,77.33
2018-07-31T04:51:15.782Z,77.33
2018-07-31T04:52:15.768Z,78.00
2018-07-31T04:53:15.756Z,77.81
2018-07-31T04:54:15.753Z,78.00
2018-07-31T04:55:15.733Z,76.90
2018-07-31T04:56:15.728Z,77.61
2018-07-31T04:57:15.709Z,77.71
2018-07-31T04:58:15.698Z,77.51
2018-07-31T04:59:15.687Z,77.23
2018-07-31T05:00:15.677Z,77.33
2018-07-31T05:01:15.663Z,76.55
2018-07-31T05:02:15.657Z,77.03
2018-07-31T05:03:15.638Z,76.65
2018-07-31T05:04:15.646Z,76.55
2018-07-31T05:05:15.614Z,77.13
2018-07-31T05:06:15.605Z,76.93
2018-07-31T05:07:15.591Z,77.33
2018-07-31T05:08:15.581Z,76.55
2018-07-31T05:09:15.568Z,76.65
2018-07-31T05:10:15.561Z,76.75
2018-07-31T05:11:15.546Z,76.55
2018-07-31T05:12:15.534Z,76.45
2018-07-31T05:13:15.522Z,76.75
2018-07-31T05:14:15.517Z,76.40
2018-07-31T05:15:15.501Z,76.93
2018-07-31T05:16:15.485Z,76.59
2018-07-31T05:17:15.475Z,77.07
2018-07-31T05:18:15.470Z,76.50
2018-07-31T05:19:15.496Z,76.68
2018-07-31T05:20:15.440Z,76.78
2018-07-31T05:21:15.431Z,76.78
2018-07-31T05:22:15.418Z,76.68
2018-07-31T05:23:15.408Z,76.50
2018-07-31T05:24:15.395Z,76.10
2018-07-31T05:25:15.399Z,75.34
2018-07-31T05:26:15.371Z,75.62
2018-07-31T05:27:15.358Z,76.10
2018-07-31T05:28:15.354Z,76.10
2018-07-31T05:29:15.336Z,75.53
2018-07-31T05:30:15.325Z,74.89
2018-07-31T05:31:15.313Z,75.09
2018-07-31T05:32:15.303Z,75.37
2018-07-31T05:33:15.289Z,75.37
2018-07-31T05:34:15.283Z,75.27
2018-07-31T05:35:15.268Z,75.67
2018-07-31T05:36:15.255Z,74.79
2018-07-31T05:37:15.245Z,74.21
2018-07-31T05:38:15.233Z,74.21
2018-07-31T05:39:15.222Z,74.21
2018-07-31T05:40:15.211Z,74.21
2018-07-31T05:41:15.198Z,74.73
2018-07-31T05:42:15.187Z,74.44
2018-07-31T05:43:15.175Z,74.54
2018-07-31T05:44:15.164Z,74.83
2018-07-31T05:45:15.155Z,74.35
2018-07-31T05:46:15.195Z,74.54
2018-07-31T05:47:15.131Z,73.58
2018-07-31T05:48:15.119Z,73.86
2018-07-31T05:49:15.108Z,73.90
2018-07-31T05:50:15.100Z,73.61
2018-07-31T05:51:15.086Z,73.61
2018-07-31T05:52:15.074Z,73.80
2018-07-31T05:53:15.062Z,73.61
2018-07-31T05:54:15.053Z,73.42
2018-07-31T05:55:15.040Z,73.32
2018-07-31T05:56:15.037Z,73.61
2018-07-31T05:57:15.022Z,73.03
2018-07-31T05:58:15.005Z,73.03
2018-07-31T05:59:14.995Z,72.94
2018-07-31T06:00:14.989Z,72.88
2018-07-31T06:01:14.973Z,72.88
2018-07-31T06:02:14.963Z,72.10
2018-07-31T06:03:14.954Z,72.58
2018-07-31T06:04:14.940Z,72.00
2018-07-31T06:05:14.930Z,72.39
2018-07-31T06:06:14.919Z,72.39
2018-07-31T06:07:14.905Z,72.04
2018-07-31T06:08:14.895Z,71.36
2018-07-31T06:09:14.885Z,71.75
2018-07-31T06:10:14.873Z,71.08
2018-07-31T06:11:14.899Z,71.08
2018-07-31T06:12:14.851Z,70.20
2018-07-31T06:13:14.842Z,71.08
2018-07-31T06:14:14.829Z,70.40
2018-07-31T06:15:14.835Z,70.68
2018-07-31T06:16:14.808Z,70.43
2018-07-31T06:17:14.797Z,70.72
2018-07-31T06:18:14.792Z,71.78
2018-07-31T06:19:14.777Z,70.72
2018-07-31T06:20:14.769Z,71.01
2018-07-31T06:21:14.762Z,69.75
2018-07-31T06:22:14.743Z,70.62
2018-07-31T06:23:14.736Z,69.79
2018-07-31T06:24:14.726Z,70.47
2018-07-31T06:25:14.715Z,69.89
2018-07-31T06:26:14.704Z,70.08
2018-07-31T06:27:14.690Z,70.47
2018-07-31T06:28:14.707Z,71.04
2018-07-31T06:29:14.679Z,69.69
2018-07-31T06:30:14.660Z,69.69
2018-07-31T06:31:14.652Z,69.82
2018-07-31T06:32:14.646Z,69.73
2018-07-31T06:33:14.628Z,69.24
2018-07-31T06:34:14.621Z,69.63
2018-07-31T06:35:14.606Z,69.53
2018-07-31T06:36:14.599Z,68.30
2018-07-31T06:37:14.590Z,69.18
2018-07-31T06:38:14.587Z,69.18
2018-07-31T06:39:14.571Z,69.18
2018-07-31T06:40:14.556Z,68.82
2018-07-31T06:41:14.545Z,67.76
2018-07-31T06:42:14.536Z,68.15
2018-07-31T06:43:14.524Z,68.15
2018-07-31T06:44:14.514Z,67.85
2018-07-31T06:45:14.503Z,68.05
2018-07-31T06:46:14.492Z,68.08
2018-07-31T06:47:14.484Z,66.82
2018-07-31T06:48:14.473Z,66.63
2018-07-31T06:49:14.464Z,68.28
2018-07-31T06:50:14.464Z,66.86
2018-07-31T06:51:14.442Z,66.47
2018-07-31T06:52:14.433Z,66.56
2018-07-31T06:53:14.422Z,65.98
2018-07-31T06:54:14.417Z,65.59
2018-07-31T06:55:14.408Z,66.02
2018-07-31T06:56:14.396Z,66.02
2018-07-31T06:57:14.385Z,65.43
2018-07-31T06:58:14.383Z,65.33
2018-07-31T06:59:14.365Z,65.33
2018-07-31T07:00:14.355Z,65.33
2018-07-31T07:01:14.346Z,65.56
2018-07-31T07:02:14.360Z,65.56
2018-07-31T07:03:14.327Z,65.47
2018-07-31T07:04:14.318Z,64.30
2018-07-31T07:05:14.308Z,63.94
2018-07-31T07:06:14.300Z,63.94
2018-07-31T07:07:14.289Z,63.65
2018-07-31T07:08:14.282Z,63.07
2018-07-31T07:09:14.328Z,63.07
2018-07-31T07:10:14.264Z,63.10
2018-07-31T07:11:14.255Z,62.61
2018-07-31T07:12:14.245Z,62.23
2018-07-31T07:13:14.234Z,63.78
2018-07-31T07:14:14.239Z,61.93
2018-07-31T07:15:14.220Z,62.06
2018-07-31T07:16:14.213Z,62.84
2018-07-31T07:17:14.199Z,62.16
2018-07-31T07:18:14.191Z,62.45
2018-07-31T07:19:14.186Z,59.43
2018-07-31T07:20:14.181Z,60.72
2018-07-31T07:21:14.164Z,60.24
2018-07-31T07:22:14.156Z,59.95
2018-07-31T07:23:14.146Z,59.46
2018-07-31T07:24:14.138Z,59.88
2018-07-31T07:25:14.130Z,57.93
2018-07-31T07:26:14.121Z,58.35
2018-07-31T07:27:14.115Z,58.35
2018-07-31T07:28:14.108Z,58.35
2018-07-31T07:29:14.100Z,57.21
2018-07-31T07:30:14.088Z,56.62
2018-07-31T07:31:14.079Z,58.09
2018-07-31T07:32:14.071Z,56.07
2018-07-31T07:33:14.065Z,55.29
2018-07-31T07:34:14.056Z,54.70
2018-07-31T07:35:14.048Z,54.80
2018-07-31T07:36:14.041Z,54.53
2018-07-31T07:37:14.029Z,55.12
2018-07-31T07:38:14.022Z,54.75
2018-07-31T07:39:14.014Z,53.78
2018-07-31T07:40:14.054Z,53.52
2018-07-31T07:41:14.001Z,52.37
2018-07-31T07:42:13.992Z,52.00
2018-07-31T07:43:13.986Z,50.49
2018-07-31T07:44:13.976Z,49.43
2018-07-31T07:45:13.972Z,46.44
2018-07-31T07:46:13.964Z,46.08
2018-07-31T07:47:13.955Z,44.74
2018-07-31T07:48:13.947Z,44.30
2018-07-31T07:49:13.944Z,43.24
2018-07-31T07:50:13.937Z,41.69
2018-07-31T07:51:13.925Z,41.04
2018-07-31T07:52:13.917Z,40.56
2018-07-31T07:53:13.909Z,38.20
2018-07-31T07:54:14.079Z,38.49
2018-07-31T07:55:13.900Z,37.51
2018-07-31T07:56:13.891Z,37.41
2018-07-31T07:57:13.913Z,37.71
2018-07-31T07:58:13.878Z,36.74
2018-07-31T07:59:13.874Z,36.84
2018-07-31T08:00:13.887Z,36.07
2018-07-31T08:01:13.861Z,37.37
2018-07-31T08:02:13.861Z,36.80
2018-07-31T08:03:13.901Z,34.84
2018-07-31T08:04:13.871Z,35.14
2018-07-31T08:05:13.853Z,34.13
2018-07-31T08:06:13.843Z,34.44
2018-07-31T08:07:13.834Z,36.42
2018-07-31T08:08:13.834Z,35.66
2018-07-31T08:09:13.829Z,34.95
2018-07-31T08:10:13.822Z,35.55
2018-07-31T08:11:13.822Z,34.88
2018-07-31T08:12:13.819Z,33.61
2018-07-31T08:13:13.816Z,33.90
2018-07-31T08:14:13.815Z,34.22
2018-07-31T08:15:13.804Z,32.85
2018-07-31T08:16:13.802Z,33.89
2018-07-31T08:17:13.800Z,30.62
2018-07-31T08:18:13.805Z,29.82
2018-07-31T08:19:13.794Z,30.88
2018-07-31T08:20:13.825Z,31.59
2018-07-31T08:21:13.788Z,29.72
2018-07-31T08:22:13.785Z,29.23
2018-07-31T08:23:13.784Z,28.96
2018-07-31T08:24:13.782Z,28.35
2018-07-31T08:25:13.780Z,28.88
2018-07-31T08:26:13.778Z,28.66
2018-07-31T08:27:13.774Z,29.57
2018-07-31T08:28:13.780Z,30.09
2018-07-31T08:29:13.771Z,27.71
2018-07-31T08:30:13.774Z,28.19
2018-07-31T08:31:13.795Z,27.10
2018-07-31T08:32:13.770Z,27.19
2018-07-31T08:33:13.777Z,27.00
2018-07-31T08:34:13.762Z,27.30
2018-07-31T08:35:13.770Z,27.41
2018-07-31T08:36:13.764Z,28.50
2018-07-31T08:37:13.756Z,29.21
2018-07-31T08:38:13.758Z,27.05
2018-07-31T08:39:13.760Z,25.96
2018-07-31T08:40:13.755Z,27.36
2018-07-31T08:41:13.765Z,25.97
2018-07-31T08:42:13.758Z,25.55
2018-07-31T08:43:13.752Z,25.32
2018-07-31T08:44:13.754Z,27.40
2018-07-31T08:45:13.751Z,25.91
2018-07-31T08:46:13.752Z,26.39
2018-07-31T08:47:13.748Z,26.80
2018-07-31T08:48:13.752Z,27.81
2018-07-31T08:49:13.747Z,25.84
2018-07-31T08:50:13.748Z,26.12
2018-07-31T08:51:13.777Z,25.62
2018-07-31T08:52:13.746Z,25.92
2018-07-31T08:53:13.746Z,25.92
2018-07-31T08:54:13.746Z,27.31
2018-07-31T08:55:13.750Z,26.13
2018-07-31T08:56:13.744Z,26.26
2018-07-31T08:57:13.743Z,24.99
2018-07-31T08:58:13.742Z,25.10
2018-07-31T08:59:13.741Z,24.54
2018-07-31T09:00:13.753Z,23.34
2018-07-31T09:01:13.741Z,22.11
2018-07-31T09:02:13.792Z,23.19
2018-07-31T09:03:13.744Z,24.91
2018-07-31T09:04:13.750Z,24.71
2018-07-31T09:05:13.742Z,24.10
2018-07-31T09:06:13.741Z,24.19
2018-07-31T09:07:13.744Z,24.19
2018-07-31T09:08:13.800Z,24.66
2018-07-31T09:09:13.742Z,24.87
2018-07-31T09:10:13.743Z,24.58
2018-07-31T09:11:13.751Z,23.78
2018-07-31T09:12:13.745Z,25.07
2018-07-31T09:13:13.743Z,24.49
2018-07-31T09:14:13.745Z,23.30
2018-07-31T09:15:13.745Z,23.18
2018-07-31T09:16:13.748Z,23.67
2018-07-31T09:17:13.746Z,24.35
2018-07-31T09:18:13.745Z,24.65
2018-07-31T09:19:13.749Z,23.37
2018-07-31T09:20:13.746Z,23.16
2018-07-31T09:21:13.749Z,24.95
2018-07-31T09:22:13.752Z,24.85
2018-07-31T09:23:13.750Z,25.95
2018-07-31T09:24:13.753Z,27.25
2018-07-31T09:25:13.750Z,23.36
2018-07-31T09:26:13.759Z,26.75
2018-07-31T09:27:13.751Z,26.27
2018-07-31T09:28:13.751Z,24.38
2018-07-31T09:29:13.756Z,23.28
2018-07-31T09:30:13.767Z,23.99
2018-07-31T09:31:13.758Z,23.61
2018-07-31T09:32:13.760Z,24.02
2018-07-31T09:33:13.755Z,22.91
2018-07-31T09:34:13.757Z,23.21
2018-07-31T09:35:13.762Z,24.41
2018-07-31T09:36:13.760Z,23.12
2018-07-31T09:37:13.765Z,22.81
2018-07-31T09:38:13.763Z,25.79
2018-07-31T09:39:13.767Z,22.89
2018-07-31T09:40:13.765Z,23.88
2018-07-31T09:41:13.767Z,24.58
2018-07-31T09:42:13.768Z,24.79
2018-07-31T09:43:13.777Z,23.28
2018-07-31T09:44:13.773Z,24.57
2018-07-31T09:45:13.772Z,23.48
2018-07-31T09:46:13.779Z,24.79
2018-07-31T09:47:13.775Z,25.89
2018-07-31T09:48:13.776Z,23.50
2018-07-31T09:49:13.777Z,23.60
2018-07-31T09:50:13.783Z,21.62
2018-07-31T09:51:13.781Z,21.72
2018-07-31T09:52:13.789Z,22.42
2018-07-31T09:53:13.784Z,22.61
2018-07-31T09:54:13.788Z,22.42
2018-07-31T09:55:13.789Z,22.52
2018-07-31T09:56:13.792Z,23.72
2018-07-31T09:57:13.844Z,21.53
2018-07-31T09:58:13.793Z,22.73
2018-07-31T09:59:13.862Z,23.03
2018-07-31T10:00:13.800Z,22.53
2018-07-31T10:01:13.800Z,25.04
2018-07-31T10:02:13.805Z,20.75
2018-07-31T10:03:13.804Z,22.03
2018-07-31T10:04:13.805Z,22.23
2018-07-31T10:05:13.813Z,22.01
2018-07-31T10:06:13.812Z,21.60
2018-07-31T10:07:13.817Z,22.50
2018-07-31T10:08:13.827Z,23.79
2018-07-31T10:09:13.822Z,23.82
2018-07-31T10:10:13.824Z,21.33
2018-07-31T10:11:13.822Z,22.72
2018-07-31T10:12:13.854Z,23.32
2018-07-31T10:13:13.828Z,22.73
2018-07-31T10:14:13.830Z,23.64
2018-07-31T10:15:13.832Z,22.05
2018-07-31T10:16:13.845Z,21.66
2018-07-31T10:17:13.837Z,21.66
2018-07-31T10:18:13.860Z,20.37
2018-07-31T10:19:13.842Z,20.87
2018-07-31T10:20:13.846Z,22.75
2018-07-31T10:21:13.853Z,21.88
2018-07-31T10:22:13.852Z,23.08
2018-07-31T10:23:13.856Z,21.09
2018-07-31T10:24:13.905Z,20.90
2018-07-31T10:25:13.860Z,21.50
2018-07-31T10:26:13.864Z,19.70
2018-07-31T10:27:13.867Z,21.61
2018-07-31T10:28:13.873Z,20.12
2018-07-31T10:29:13.872Z,19.32
2018-07-31T10:30:13.887Z,19.33
2018-07-31T10:31:13.880Z,18.92
2018-07-31T10:32:13.883Z,19.83
2018-07-31T10:33:13.886Z,19.03
2018-07-31T10:34:13.892Z,18.42
2018-07-31T10:35:13.901Z,18.82
2018-07-31T10:36:13.897Z,19.13
2018-07-31T10:37:13.904Z,19.33
2018-07-31T10:38:13.905Z,18.01
2018-07-31T10:39:13.910Z,19.51
2018-07-31T10:40:13.910Z,20.21
2018-07-31T10:41:13.914Z,19.82
2018-07-31T10:42:13.926Z,20.14
2018-07-31T10:43:13.928Z,18.43
2018-07-31T10:44:13.927Z,17.22
2018-07-31T10:45:13.928Z,20.34
2018-07-31T10:46:13.933Z,17.63
2018-07-31T10:47:13.940Z,18.63
2018-07-31T10:48:13.945Z,18.13
2018-07-31T10:49:13.948Z,17.44
2018-07-31T10:50:13.949Z,18.24
2018-07-31T10:51:14.056Z,18.02
2018-07-31T10:52:13.955Z,18.62
2018-07-31T10:53:13.961Z,18.01
2018-07-31T10:54:13.965Z,19.42
2018-07-31T10:55:13.970Z,19.31
2018-07-31T10:56:13.978Z,17.92
2018-07-31T10:57:13.977Z,18.44
2018-07-31T10:58:14.060Z,19.15
2018-07-31T10:59:13.984Z,19.27
2018-07-31T11:00:14.016Z,16.77
2018-07-31T11:01:13.995Z,16.38
2018-07-31T11:02:13.999Z,17.39
2018-07-31T11:03:14.053Z,17.69
2018-07-31T11:04:14.095Z,16.08
2018-07-31T11:05:14.012Z,17.20
2018-07-31T11:06:14.047Z,16.38
2018-07-31T11:07:14.027Z,17.19
2018-07-31T11:08:14.028Z,16.47
2018-07-31T11:09:14.033Z,17.77
2018-07-31T11:10:14.035Z,18.29
2018-07-31T11:11:14.043Z,15.88
2018-07-31T11:12:14.046Z,17.49
2018-07-31T11:13:14.097Z,18.30
2018-07-31T11:14:14.063Z,17.50
2018-07-31T11:15:14.064Z,17.69
2018-07-31T11:16:14.067Z,16.59
2018-07-31T11:17:14.082Z,16.99
2018-07-31T11:18:14.075Z,16.27
2018-07-31T11:19:14.081Z,17.17
2018-07-31T11:20:14.089Z,17.07
2018-07-31T11:21:14.114Z,15.77
2018-07-31T11:22:14.099Z,15.48
2018-07-31T11:23:14.104Z,17.69
2018-07-31T11:24:14.109Z,16.58
2018-07-31T11:25:14.114Z,16.69
2018-07-31T11:26:14.119Z,18.10
2018-07-31T11:27:14.129Z,16.79
2018-07-31T11:28:14.132Z,15.48
2018-07-31T11:29:14.137Z,15.97
2018-07-31T11:30:14.144Z,16.47
2018-07-31T11:31:14.152Z,16.76
2018-07-31T11:32:14.154Z,16.16
2018-07-31T11:33:14.161Z,17.46
2018-07-31T11:34:14.167Z,17.47
2018-07-31T11:35:14.175Z,16.88
2018-07-31T11:36:14.179Z,16.39
2018-07-31T11:37:14.193Z,15.17
2018-07-31T11:38:14.193Z,15.07
2018-07-31T11:39:14.196Z,15.86
2018-07-31T11:40:14.202Z,15.77
2018-07-31T11:41:14.208Z,16.27
2018-07-31T11:42:14.214Z,17.78
2018-07-31T11:43:14.227Z,16.69
2018-07-31T11:44:14.227Z,16.18
2018-07-31T11:45:14.231Z,19.21
2018-07-31T11:46:14.239Z,16.39
2018-07-31T11:47:14.259Z,17.22
2018-07-31T11:48:14.251Z,15.20
2018-07-31T11:49:14.263Z,15.69
2018-07-31T11:50:14.314Z,16.39
2018-07-31T11:51:14.269Z,15.69
2018-07-31T11:52:14.276Z,16.19
2018-07-31T11:53:14.282Z,15.89
2018-07-31T11:54:14.293Z,15.70
2018-07-31T11:55:14.295Z,15.20
2018-07-31T11:56:14.301Z,15.81
2018-07-31T11:57:14.306Z,15.22
2018-07-31T11:58:14.312Z,13.21
2018-07-31T11:59:14.320Z,14.21
2018-07-31T12:00:14.328Z,14.11
2018-07-31T12:01:14.331Z,14.79
2018-07-31T12:02:14.338Z,16.60
2018-07-31T12:03:14.347Z,15.58
2018-07-31T12:04:14.366Z,16.20
2018-07-31T12:05:14.355Z,16.19
2018-07-31T12:06:14.361Z,15.99
2018-07-31T12:07:14.367Z,16.19
2018-07-31T12:08:14.371Z,15.49
2018-07-31T12:09:14.376Z,14.99
2018-07-31T12:10:14.385Z,13.98
2018-07-31T12:11:14.387Z,15.08
2018-07-31T12:12:14.391Z,14.77
2018-07-31T12:13:14.397Z,15.08
2018-07-31T12:14:14.401Z,14.87
2018-07-31T12:15:14.404Z,15.17
2018-07-31T12:16:14.409Z,15.16
2018-07-31T12:17:14.416Z,16.17
2018-07-31T12:18:14.420Z,15.78
2018-07-31T12:19:14.422Z,14.87
2018-07-31T12:20:14.428Z,15.98
2018-07-31T12:21:14.429Z,17.59
2018-07-31T12:22:14.434Z,16.47
2018-07-31T12:23:14.441Z,15.16
2018-07-31T12:24:14.450Z,16.65
2018-07-31T12:25:14.443Z,15.94
2018-07-31T12:26:14.446Z,17.14
2018-07-31T12:27:14.451Z,16.33
2018-07-31T12:28:14.457Z,16.74
2018-07-31T12:29:14.455Z,16.73
2018-07-31T12:30:14.459Z,18.13
2018-07-31T12:31:14.462Z,17.02
2018-07-31T12:32:14.469Z,18.01
2018-07-31T12:33:14.541Z,17.31
2018-07-31T12:34:14.469Z,17.90
2018-07-31T12:35:14.475Z,17.40
2018-07-31T12:36:14.472Z,18.10
2018-07-31T12:37:14.475Z,18.19
2018-07-31T12:38:14.529Z,18.08
2018-07-31T12:39:14.481Z,18.08
2018-07-31T12:40:14.483Z,19.68
2018-07-31T12:41:14.484Z,19.57
2018-07-31T12:42:14.491Z,18.88
2018-07-31T12:43:14.488Z,19.57
2018-07-31T12:44:14.491Z,18.08
2018-07-31T12:45:14.491Z,19.47
2018-07-31T12:46:14.496Z,19.07
2018-07-31T12:47:14.490Z,21.55
2018-07-31T12:48:14.494Z,19.36
2018-07-31T12:49:14.496Z,19.45
2018-07-31T12:50:14.580Z,20.56
2018-07-31T12:51:14.496Z,18.56
2018-07-31T12:52:14.498Z,18.35